Time;durP1;ratioP1;P1;durP2;ratioP2;P2;SDS_P1;SDS_P2;PMS_P1;PMS_P2;Temp;Humidity;BMP_temperature;BMP_pressure;BME280_temperature;BME280_humidity;BME280_pressure;Samples;Min_cycle;Max_cycle;Signal;HPM_P1;HPM_P2
2021/04/14 00:00:58;;;;;;;3.22;2.30;;;4.80;99.90;;;;;;5095517;28;20031;-72
2021/04/14 00:03:25;;;;;;;7.28;2.65;;;4.70;99.90;;;;;;5095159;28;20035;-71
2021/04/14 00:05:52;;;;;;;4.63;2.13;;;4.80;99.90;;;;;;5093157;28;20379;-72
2021/04/14 00:08:18;;;;;;;4.38;2.10;;;4.70;99.90;;;;;;5093360;28;20036;-72
2021/04/14 00:10:46;;;;;;;6.18;2.17;;;4.70;99.90;;;;;;5078344;28;20357;-72
2021/04/14 00:13:15;;;;;;;4.47;2.00;;;4.60;99.90;;;;;;5092842;28;20110;-72
2021/04/14 00:15:48;;;;;;;3.15;2.00;;;4.60;99.90;;;;;;5092316;28;20028;-72
2021/04/14 00:18:14;;;;;;;3.22;1.92;;;4.60;99.90;;;;;;5091152;28;20354;-72
2021/04/14 00:20:40;;;;;;;3.33;1.92;;;4.60;99.90;;;;;;5090563;28;20107;-71
2021/04/14 00:23:06;;;;;;;6.97;2.22;;;4.60;99.90;;;;;;5090582;28;20070;-71
2021/04/14 00:25:34;;;;;;;4.28;2.65;;;4.60;99.90;;;;;;5092118;28;20479;-72
2021/04/14 00:28:00;;;;;;;3.53;2.15;;;4.60;99.90;;;;;;5091511;28;20181;-72
2021/04/14 00:30:26;;;;;;;2.42;2.10;;;4.50;99.90;;;;;;5092122;28;20107;-72
2021/04/14 00:32:52;;;;;;;4.88;1.95;;;4.50;99.90;;;;;;5092575;28;20059;-72
2021/04/14 00:35:21;;;;;;;3.95;2.55;;;4.50;99.90;;;;;;5092537;28;20054;-73
2021/04/14 00:37:48;;;;;;;3.40;2.28;;;4.40;99.90;;;;;;5093217;28;20480;-73
2021/04/14 00:40:37;;;;;;;3.20;2.20;;;4.50;99.90;;;;;;5094804;28;20475;-73
2021/04/14 00:43:10;;;;;;;3.33;2.22;;;4.40;99.90;;;;;;5094796;28;20035;-73
2021/04/14 00:45:35;;;;;;;2.53;1.80;;;4.40;99.90;;;;;;5094725;28;20493;-73
2021/04/14 00:48:01;;;;;;;3.35;1.95;;;4.30;99.90;;;;;;5094461;28;20109;-73
2021/04/14 00:50:27;;;;;;;4.57;2.55;;;4.30;99.90;;;;;;5094675;28;20032;-73
2021/04/14 00:52:52;;;;;;;3.83;1.92;;;4.40;99.90;;;;;;5095731;28;20124;-73
2021/04/14 00:55:22;;;;;;;2.50;2.00;;;4.30;99.90;;;;;;5095543;28;20103;-73
2021/04/14 00:57:47;;;;;;;4.88;2.10;;;4.40;99.90;;;;;;5093895;28;20089;-73
2021/04/14 01:00:37;;;;;;;3.95;2.15;;;4.40;99.90;;;;;;5094240;28;20060;-72
2021/04/14 01:03:05;;;;;;;6.47;1.95;;;4.40;99.90;;;;;;5094225;28;20053;-73
2021/04/14 01:05:33;;;;;;;1.88;1.75;;;4.40;99.90;;;;;;5095477;28;20036;-73
2021/04/14 01:07:59;;;;;;;4.60;2.95;;;4.50;99.90;;;;;;5085811;28;20081;-73
2021/04/14 01:10:25;;;;;;;10.85;2.15;;;4.50;99.90;;;;;;5095353;28;20463;-73
2021/04/14 01:12:53;;;;;;;4.80;2.25;;;4.60;99.90;;;;;;5095722;28;20039;-72
2021/04/14 01:15:26;;;;;;;4.63;2.03;;;4.60;99.90;;;;;;5094152;28;20054;-73
2021/04/14 01:17:52;;;;;;;4.13;2.08;;;4.60;99.90;;;;;;5091618;28;20020;-72
2021/04/14 01:20:18;;;;;;;3.80;1.95;;;4.60;99.90;;;;;;5095668;28;20032;-73
2021/04/14 01:22:44;;;;;;;3.47;1.90;;;4.60;99.90;;;;;;5095055;28;20028;-73
2021/04/14 01:25:11;;;;;;;4.75;2.28;;;4.60;99.90;;;;;;5095266;28;20107;-72
2021/04/14 01:27:36;;;;;;;3.95;2.55;;;4.70;99.90;;;;;;5095417;28;20055;-73
2021/04/14 01:30:13;;;;;;;5.00;2.10;;;4.70;99.90;;;;;;5095300;28;20028;-73
2021/04/14 01:32:39;;;;;;;4.55;2.47;;;4.70;99.90;;;;;;5094825;28;20487;-73
2021/04/14 01:35:05;;;;;;;6.57;2.28;;;4.70;99.90;;;;;;5094653;28;20028;-73
2021/04/14 01:37:31;;;;;;;2.92;2.08;;;4.70;99.90;;;;;;5093914;28;20036;-73
2021/04/14 01:39:57;;;;;;;5.15;2.10;;;4.70;99.90;;;;;;5096110;28;20023;-73
2021/04/14 01:42:22;;;;;;;3.00;2.13;;;4.70;99.90;;;;;;5097057;28;20071;-73
2021/04/14 01:44:48;;;;;;;4.72;2.40;;;4.70;99.90;;;;;;5112495;28;20108;-73
2021/04/14 01:47:13;;;;;;;4.25;1.85;;;4.70;99.90;;;;;;5113052;28;20020;-73
2021/04/14 01:49:39;;;;;;;11.10;2.40;;;4.70;99.90;;;;;;5113793;28;20016;-72
2021/04/14 01:52:05;;;;;;;2.63;1.80;;;4.80;99.90;;;;;;5114354;28;20016;-73
2021/04/14 01:54:30;;;;;;;3.33;1.92;;;4.80;99.90;;;;;;5118693;28;20054;-73
2021/04/14 01:56:56;;;;;;;3.20;1.92;;;4.80;99.90;;;;;;5119030;28;20045;-73
2021/04/14 01:59:22;;;;;;;5.25;1.95;;;4.90;99.90;;;;;;5116948;28;20024;-72
2021/04/14 02:01:47;;;;;;;1.98;1.55;;;4.90;99.90;;;;;;5106685;28;20436;-74
2021/04/14 02:04:13;;;;;;;4.30;2.03;;;4.90;99.90;;;;;;5095935;28;20032;-72
2021/04/14 02:06:39;;;;;;;2.50;1.90;;;4.90;99.90;;;;;;5094823;28;20042;-72
2021/04/14 02:09:05;;;;;;;2.17;1.73;;;4.90;99.90;;;;;;5095861;28;20430;-73
2021/04/14 02:11:31;;;;;;;4.82;1.92;;;4.90;99.90;;;;;;5095358;28;20053;-73
2021/04/14 02:13:56;;;;;;;4.68;2.22;;;4.90;99.90;;;;;;5093584;28;20111;-74
2021/04/14 02:16:22;;;;;;;5.05;2.30;;;4.90;99.90;;;;;;5093241;28;20028;-74
2021/04/14 02:18:52;;;;;;;3.92;2.17;;;4.80;99.90;;;;;;5092765;28;20040;-73
2021/04/14 02:21:20;;;;;;;3.28;1.98;;;4.80;99.90;;;;;;5092786;28;20020;-73
2021/04/14 02:23:47;;;;;;;3.83;2.58;;;4.80;99.90;;;;;;5092434;28;20023;-73
2021/04/14 02:26:19;;;;;;;4.53;2.40;;;4.90;99.90;;;;;;5094219;28;20048;-72
2021/04/14 02:28:46;;;;;;;5.60;2.45;;;4.90;99.90;;;;;;5092503;28;20071;-72
2021/04/14 02:31:17;;;;;;;10.45;2.70;;;4.90;99.90;;;;;;5093897;28;20376;-73
2021/04/14 02:33:42;;;;;;;4.57;2.80;;;4.90;99.90;;;;;;5092300;28;20026;-72
2021/04/14 02:36:10;;;;;;;5.15;2.55;;;4.90;99.90;;;;;;5092787;28;20040;-73
2021/04/14 02:38:36;;;;;;;3.05;2.65;;;4.90;99.90;;;;;;5093700;28;20357;-72
2021/04/14 02:41:04;;;;;;;3.78;2.40;;;5.00;99.90;;;;;;5092563;28;20046;-72
2021/04/14 02:43:29;;;;;;;2.58;2.35;;;5.00;99.90;;;;;;5091708;28;20036;-72
2021/04/14 02:45:55;;;;;;;5.30;2.42;;;5.00;99.90;;;;;;5093550;28;20039;-72
2021/04/14 02:48:21;;;;;;;3.83;2.40;;;5.00;99.90;;;;;;5093604;28;20031;-72
2021/04/14 02:50:46;;;;;;;3.13;2.30;;;5.00;99.90;;;;;;5092028;28;20044;-72
2021/04/14 02:53:12;;;;;;;4.70;2.28;;;5.00;99.90;;;;;;5093320;28;20024;-73
2021/04/14 02:55:39;;;;;;;3.88;2.70;;;5.00;99.90;;;;;;5093676;28;20028;-72
2021/04/14 02:58:04;;;;;;;4.05;2.70;;;4.90;99.90;;;;;;5093463;28;20036;-73
2021/04/14 03:00:31;;;;;;;4.03;2.28;;;5.00;99.90;;;;;;5093004;28;20031;-73
2021/04/14 03:02:57;;;;;;;3.75;2.47;;;4.90;99.90;;;;;;5079517;28;20476;-72
2021/04/14 03:05:28;;;;;;;3.20;2.40;;;4.90;99.90;;;;;;5089436;28;20024;-72
2021/04/14 03:07:54;;;;;;;4.15;2.97;;;4.90;99.90;;;;;;5093532;28;20028;-72
2021/04/14 03:10:20;;;;;;;5.82;2.50;;;4.80;99.90;;;;;;5091624;28;20426;-72
2021/04/14 03:12:46;;;;;;;5.32;2.78;;;4.80;99.90;;;;;;5088995;28;20027;-72
2021/04/14 03:15:13;;;;;;;6.68;2.63;;;4.80;99.90;;;;;;5093332;28;20429;-73
2021/04/14 03:17:38;;;;;;;5.38;2.90;;;4.80;99.90;;;;;;5108571;28;20020;-72
2021/04/14 03:20:05;;;;;;;4.03;2.90;;;4.80;99.90;;;;;;5092932;28;20028;-72
2021/04/14 03:22:32;;;;;;;4.90;3.40;;;4.80;99.90;;;;;;5092733;28;20075;-72
2021/04/14 03:24:57;;;;;;;5.60;2.90;;;4.80;99.90;;;;;;5091505;28;20024;-72
2021/04/14 03:27:23;;;;;;;4.22;2.53;;;4.70;99.90;;;;;;5090700;28;20081;-72
2021/04/14 03:29:49;;;;;;;4.63;2.75;;;4.70;99.90;;;;;;5089573;28;20123;-72
2021/04/14 03:32:14;;;;;;;7.13;3.25;;;4.70;99.90;;;;;;5093503;28;20020;-72
2021/04/14 03:34:40;;;;;;;4.45;3.03;;;4.60;99.90;;;;;;5094292;28;20027;-72
2021/04/14 03:37:05;;;;;;;8.93;3.70;;;4.60;99.90;;;;;;5093404;28;20059;-72
2021/04/14 03:39:31;;;;;;;4.25;2.83;;;4.70;99.90;;;;;;5105403;28;20037;-73
2021/04/14 03:41:56;;;;;;;4.90;3.47;;;4.60;99.90;;;;;;5111111;28;20040;-72
2021/04/14 03:44:22;;;;;;;3.72;3.28;;;4.60;99.90;;;;;;5111831;28;20043;-73
2021/04/14 03:46:48;;;;;;;5.28;3.50;;;4.60;99.90;;;;;;5110952;28;20105;-73
2021/04/14 03:49:13;;;;;;;6.00;3.13;;;4.50;99.90;;;;;;5116136;28;20012;-72
2021/04/14 03:51:39;;;;;;;4.93;2.92;;;4.50;99.90;;;;;;5116749;28;20051;-72
2021/04/14 03:54:05;;;;;;;3.65;2.88;;;4.50;99.90;;;;;;5116201;28;20042;-71
2021/04/14 03:56:30;;;;;;;6.63;3.40;;;4.40;99.90;;;;;;5091225;28;20024;-72
2021/04/14 03:58:56;;;;;;;4.47;3.28;;;4.40;99.90;;;;;;5096284;28;20016;-72
2021/04/14 04:01:28;;;;;;;6.63;2.95;;;4.40;99.90;;;;;;5094216;28;20024;-71
2021/04/14 04:03:55;;;;;;;4.57;3.38;;;4.40;99.90;;;;;;5094305;28;20543;-71
2021/04/14 04:06:20;;;;;;;10.82;3.72;;;4.40;99.90;;;;;;5077313;28;20039;-71
2021/04/14 04:08:47;;;;;;;6.18;3.60;;;4.40;99.90;;;;;;5092292;28;20028;-72
2021/04/14 04:11:13;;;;;;;7.75;3.45;;;4.50;99.90;;;;;;5092805;28;20064;-73
2021/04/14 04:13:39;;;;;;;6.00;3.65;;;4.50;99.90;;;;;;5093510;28;20020;-72
2021/04/14 04:16:05;;;;;;;4.82;3.70;;;4.50;99.90;;;;;;5090882;28;20037;-72
2021/04/14 04:18:35;;;;;;;6.20;3.45;;;4.50;99.90;;;;;;5096711;28;20176;-72
2021/04/14 04:21:02;;;;;;;9.43;3.72;;;4.50;99.90;;;;;;5093440;28;20070;-73
2021/04/14 04:23:27;;;;;;;7.93;3.70;;;4.50;99.90;;;;;;5094438;28;20044;-72
2021/04/14 04:25:53;;;;;;;9.57;3.45;;;4.60;99.90;;;;;;5091681;28;20028;-72
2021/04/14 04:28:19;;;;;;;7.32;3.67;;;4.60;99.90;;;;;;5096295;28;20059;-72
2021/04/14 04:30:45;;;;;;;5.40;3.75;;;4.60;99.90;;;;;;5096413;28;20035;-73
2021/04/14 04:33:11;;;;;;;5.30;3.38;;;4.60;99.90;;;;;;5096180;28;20020;-72
2021/04/14 04:35:36;;;;;;;10.02;3.20;;;4.70;99.90;;;;;;5096063;28;20153;-73
2021/04/14 04:38:03;;;;;;;4.80;3.08;;;4.70;99.90;;;;;;5095706;28;20472;-73
2021/04/14 04:40:30;;;;;;;6.00;3.67;;;4.60;99.90;;;;;;5095815;28;20024;-73
2021/04/14 04:42:56;;;;;;;7.75;3.47;;;4.60;99.90;;;;;;5093862;28;20021;-73
2021/04/14 04:45:25;;;;;;;8.50;3.38;;;4.70;99.90;;;;;;5095776;28;20039;-73
2021/04/14 04:47:51;;;;;;;4.40;3.03;;;4.70;99.90;;;;;;5095183;28;20028;-73
2021/04/14 04:50:19;;;;;;;6.03;3.53;;;4.70;99.90;;;;;;5095889;28;20027;-72
2021/04/14 04:52:45;;;;;;;5.68;3.10;;;4.70;99.90;;;;;;5093789;28;20067;-73
2021/04/14 04:55:11;;;;;;;6.75;3.22;;;4.70;99.90;;;;;;5094255;28;20067;-71
2021/04/14 04:57:37;;;;;;;6.25;2.97;;;4.70;99.90;;;;;;5095575;28;20107;-73
2021/04/14 05:00:07;;;;;;;6.75;3.13;;;4.70;99.90;;;;;;5095275;28;20103;-73
2021/04/14 05:02:33;;;;;;;6.28;3.35;;;4.70;99.90;;;;;;5095393;28;20016;-72
2021/04/14 05:04:58;;;;;;;4.30;3.15;;;4.60;99.90;;;;;;5095180;28;20026;-72
2021/04/14 05:07:24;;;;;;;8.15;2.83;;;4.60;99.90;;;;;;5095299;28;20411;-73
2021/04/14 05:09:49;;;;;;;5.60;2.92;;;4.70;99.90;;;;;;5095412;28;20028;-72
2021/04/14 05:12:15;;;;;;;7.53;2.70;;;4.60;99.90;;;;;;5092984;28;20020;-71
2021/04/14 05:14:42;;;;;;;5.28;2.47;;;4.60;99.90;;;;;;5094723;28;20031;-72
2021/04/14 05:17:07;;;;;;;3.42;3.08;;;4.70;99.90;;;;;;5094316;28;20020;-72
2021/04/14 05:19:33;;;;;;;5.97;2.85;;;4.70;99.90;;;;;;5095147;28;20376;-71
2021/04/14 05:21:59;;;;;;;4.38;3.30;;;4.80;99.90;;;;;;5094371;28;20083;-72
2021/04/14 05:24:24;;;;;;;5.78;3.20;;;4.80;99.90;;;;;;5093497;28;20067;-71
2021/04/14 05:26:50;;;;;;;7.07;3.70;;;4.80;99.90;;;;;;5094633;28;20442;-72
2021/04/14 05:29:16;;;;;;;4.82;3.70;;;4.90;99.90;;;;;;5096834;28;20399;-72
2021/04/14 05:31:44;;;;;;;7.35;2.90;;;5.00;99.90;;;;;;5106038;28;20028;-72
2021/04/14 05:34:10;;;;;;;6.13;3.25;;;5.00;99.90;;;;;;5108232;28;20020;-72
2021/04/14 05:36:36;;;;;;;4.03;2.80;;;5.10;99.90;;;;;;5109615;28;20043;-72
2021/04/14 05:39:02;;;;;;;10.10;3.45;;;5.10;99.90;;;;;;5110557;28;20039;-72
2021/04/14 05:41:27;;;;;;;5.68;3.45;;;5.20;99.90;;;;;;5117244;28;20054;-72
2021/04/14 05:43:53;;;;;;;9.73;4.13;;;5.20;99.90;;;;;;5116326;28;20020;-72
2021/04/14 05:46:20;;;;;;;7.93;3.70;;;5.30;99.90;;;;;;5116047;28;20035;-71
2021/04/14 05:48:48;;;;;;;8.13;3.25;;;5.40;99.90;;;;;;5114700;28;20076;-71
2021/04/14 05:51:17;;;;;;;;;;;5.40;99.90;;;;;;5099149;28;20380;-71
2021/04/14 05:53:46;;;;;;;9.07;4.18;;;5.50;99.90;;;;;;5098411;28;20057;-72
2021/04/14 05:56:11;;;;;;;;;;;5.50;99.90;;;;;;5096010;28;20024;-72
2021/04/14 05:58:37;;;;;;;5.28;3.88;;;5.50;99.90;;;;;;5096637;28;19923;-72
2021/04/14 06:01:04;;;;;;;8.23;3.60;;;5.60;99.90;;;;;;5096097;28;20032;-72
2021/04/14 06:03:30;;;;;;;7.57;3.13;;;5.70;99.90;;;;;;5093467;28;20383;-73
2021/04/14 06:05:57;;;;;;;6.78;3.40;;;5.80;99.90;;;;;;5094269;28;20107;-73
2021/04/14 06:08:24;;;;;;;8.47;4.37;;;5.80;99.90;;;;;;5092550;28;20040;-73
2021/04/14 06:10:49;;;;;;;9.50;6.13;;;5.80;99.90;;;;;;5094883;28;20289;-73
2021/04/14 06:13:16;;;;;;;12.77;6.35;;;5.90;99.90;;;;;;5092241;28;20407;-73
2021/04/14 06:15:42;;;;;;;10.70;5.78;;;5.80;99.90;;;;;;5091985;28;20104;-73
2021/04/14 06:18:08;;;;;;;13.60;6.93;;;5.80;99.90;;;;;;5094138;28;20103;-73
2021/04/14 06:20:34;;;;;;;13.63;7.18;;;5.90;99.90;;;;;;5094954;28;20031;-72
2021/04/14 06:23:02;;;;;;;9.90;5.88;;;5.70;99.90;;;;;;5093999;28;20099;-73
2021/04/14 06:25:37;;;;;;;12.45;6.57;;;5.70;99.90;;;;;;5092214;28;20395;-73
2021/04/14 06:28:07;;;;;;;12.00;6.65;;;5.60;99.90;;;;;;5094252;28;20476;-73
2021/04/14 06:30:35;;;;;;;14.35;7.35;;;5.50;99.90;;;;;;5093018;28;20036;-74
2021/04/14 06:33:03;;;;;;;14.75;6.72;;;5.50;99.90;;;;;;5093895;28;20357;-74
2021/04/14 06:35:30;;;;;;;12.75;6.88;;;5.50;99.90;;;;;;5092909;28;20059;-73
2021/04/14 06:37:56;;;;;;;11.07;6.90;;;5.50;99.90;;;;;;5093550;28;20020;-73
2021/04/14 06:43:25;;;;;;;14.45;7.10;;;5.40;99.90;;;;;;5082764;28;20035;-73
2021/04/14 06:45:57;;;;;;;16.50;7.22;;;5.20;99.90;;;;;;5064161;28;20127;-73
2021/04/14 06:48:50;;;;;;;18.65;7.38;;;5.10;99.90;;;;;;5091793;28;20028;-74
2021/04/14 06:51:31;;;;;;;14.95;7.63;;;4.90;99.90;;;;;;5086705;28;20036;-73
2021/04/14 06:54:24;;;;;;;20.02;8.77;;;4.70;99.90;;;;;;5084147;28;20028;-74
2021/04/14 06:56:58;;;;;;;16.95;8.43;;;4.60;99.90;;;;;;5091679;28;20078;-74
2021/04/14 06:59:25;;;;;;;17.95;8.90;;;4.40;99.90;;;;;;5093310;28;20016;-74
2021/04/14 07:01:57;;;;;;;20.27;8.97;;;4.30;99.90;;;;;;5092519;28;20066;-74
2021/04/14 07:04:27;;;;;;;12.88;8.10;;;4.20;99.90;;;;;;5089299;28;20499;-74
2021/04/14 07:06:54;;;;;;;16.50;8.32;;;4.10;99.90;;;;;;5091099;28;20028;-75
2021/04/14 07:10:05;;;;;;;17.65;8.73;;;4.10;99.90;;;;;;5097809;28;21733;-75
2021/04/14 07:12:31;;;;;;;19.25;7.88;;;4.10;99.90;;;;;;5114446;28;20032;-75
2021/04/14 07:15:00;;;;;;;19.23;8.63;;;4.10;99.90;;;;;;5114070;28;20039;-76
2021/04/14 07:17:25;;;;;;;16.20;8.43;;;4.10;99.90;;;;;;5109158;28;20044;-74
2021/04/14 07:20:15;;;;;;;20.05;8.23;;;4.20;99.90;;;;;;5104613;28;20047;-76
2021/04/14 07:22:50;;;;;;;18.13;8.38;;;4.10;99.90;;;;;;5097583;28;20031;-76
2021/04/14 07:25:42;;;;;;;17.52;8.20;;;4.20;99.90;;;;;;5107176;28;20040;-76
2021/04/14 07:28:46;;;;;;;14.95;7.72;;;4.20;99.90;;;;;;5099850;28;20043;-76
2021/04/14 07:31:30;;;;;;;15.52;8.02;;;4.30;99.90;;;;;;5095020;28;20098;-75
2021/04/14 07:34:21;;;;;;;13.40;7.07;;;4.30;99.90;;;;;;5071805;28;20021;-76
2021/04/14 07:36:56;;;;;;;14.80;7.70;;;4.40;99.90;;;;;;5109205;28;20024;-76
2021/04/14 07:39:44;;;;;;;15.40;7.78;;;4.60;99.90;;;;;;5097542;28;20020;-76
2021/04/14 07:42:22;;;;;;;14.82;7.43;;;4.80;99.90;;;;;;5105128;28;20415;-75
2021/04/14 07:45:16;;;;;;;13.68;6.68;;;4.90;99.90;;;;;;5100700;28;20028;-76
2021/04/14 07:47:47;;;;;;;11.18;6.07;;;5.10;99.90;;;;;;5107192;28;20024;-76
2021/04/14 07:52:58;;;;;;;14.82;6.90;;;5.30;99.90;;;;;;5108644;28;20046;-76
2021/04/14 07:55:33;;;;;;;15.10;8.02;;;5.40;99.90;;;;;;5106975;27;20481;-76
2021/04/14 07:58:14;;;;;;;16.60;7.85;;;5.40;99.90;;;;;;5099721;28;20026;-77
2021/04/14 08:00:43;;;;;;;17.67;6.90;;;5.60;99.90;;;;;;5104103;28;20024;-76
2021/04/14 08:03:23;;;;;;;16.45;7.38;;;5.60;99.90;;;;;;5114433;28;20023;-76
2021/04/14 08:05:49;;;;;;;14.35;6.82;;;5.70;99.90;;;;;;5110649;28;20042;-77
2021/04/14 08:08:23;;;;;;;15.48;6.55;;;5.80;99.90;;;;;;5106980;28;20095;-76
2021/04/14 08:11:02;;;;;;;13.75;5.97;;;5.90;99.90;;;;;;5105029;28;20032;-76
2021/04/14 08:13:37;;;;;;;9.98;6.07;;;6.00;99.90;;;;;;5089206;28;20043;-77
2021/04/14 08:16:12;;;;;;;12.75;6.28;;;6.10;99.90;;;;;;5095269;28;20095;-76
2021/04/14 08:18:47;;;;;;;10.43;5.88;;;6.20;99.90;;;;;;5094379;28;20016;-77
2021/04/14 08:21:25;;;;;;;12.27;6.00;;;6.40;99.90;;;;;;5089910;28;20352;-75
2021/04/14 08:23:57;;;;;;;12.35;6.35;;;6.50;99.90;;;;;;5096166;28;20032;-76
2021/04/14 08:26:23;;;;;;;12.75;6.43;;;6.50;99.90;;;;;;5095445;28;20042;-77
2021/04/14 08:28:50;;;;;;;11.38;6.57;;;6.50;99.90;;;;;;5096995;28;20032;-75
2021/04/14 08:32:02;;;;;;;10.05;5.72;;;6.60;99.90;;;;;;5096349;28;20028;-75
2021/04/14 08:34:31;;;;;;;13.88;6.18;;;6.80;99.90;;;;;;5075001;28;20060;-75
2021/04/14 08:37:25;;;;;;;12.25;6.45;;;7.00;99.90;;;;;;5089628;28;20532;-75
2021/04/14 08:39:50;;;;;;;12.80;5.72;;;7.30;99.90;;;;;;5094909;28;20017;-75
2021/04/14 08:42:22;;;;;;;13.15;6.70;;;7.50;99.90;;;;;;5077575;28;20053;-76
2021/04/14 08:44:51;;;;;;;13.15;6.90;;;7.50;99.90;;;;;;5077876;28;20025;-76
2021/04/14 08:47:30;;;;;;;13.50;6.18;;;7.60;99.90;;;;;;5111935;28;20043;-76
2021/04/14 08:50:23;;;;;;;11.32;5.70;;;7.60;99.90;;;;;;5093494;28;20093;-75
2021/04/14 08:52:55;;;;;;;15.93;6.53;;;8.00;99.90;;;;;;5107056;28;20056;-76
2021/04/14 08:55:24;;;;;;;10.60;5.88;;;8.30;99.90;;;;;;5113567;28;20092;-76
2021/04/14 08:57:51;;;;;;;13.95;7.30;;;8.50;99.90;;;;;;5118188;28;20073;-76
2021/04/14 09:00:18;;;;;;;14.27;6.57;;;8.80;99.90;;;;;;5117919;28;20024;-76
2021/04/14 09:02:44;;;;;;;17.05;6.80;;;9.00;99.90;;;;;;5116774;28;20020;-76
2021/04/14 09:05:15;;;;;;;11.55;6.80;;;9.20;99.90;;;;;;5117780;28;20070;-77
2021/04/14 09:07:42;;;;;;;12.45;6.45;;;9.40;99.90;;;;;;5132005;28;20070;-78
2021/04/14 09:10:10;;;;;;;11.80;7.38;;;9.50;99.90;;;;;;5099791;28;20107;-81
2021/04/14 09:12:39;;;;;;;13.15;7.05;;;9.40;99.90;;;;;;5099485;28;20047;-77
2021/04/14 09:15:12;;;;;;;12.50;6.82;;;9.60;99.90;;;;;;5097615;28;20107;-78
2021/04/14 09:17:41;;;;;;;11.70;6.28;;;9.80;99.90;;;;;;5094703;28;20024;-79
2021/04/14 09:20:22;;;;;;;13.35;6.60;;;9.80;99.90;;;;;;5095025;28;20399;-80
2021/04/14 09:23:01;;;;;;;13.52;6.97;;;9.50;99.90;;;;;;5095338;28;20448;-80
2021/04/14 09:25:50;;;;;;;11.70;5.90;;;9.30;99.90;;;;;;5092453;28;20066;-78
2021/04/14 09:28:31;;;;;;;10.65;5.57;;;9.20;99.90;;;;;;5093446;28;20016;-79
2021/04/14 09:31:15;;;;;;;5.78;4.18;;;8.80;99.90;;;;;;5091139;28;20024;-80
2021/04/14 09:33:47;;;;;;;9.50;5.65;;;8.70;99.90;;;;;;5094553;28;20016;-77
2021/04/14 09:36:30;;;;;;;11.38;5.40;;;8.60;99.90;;;;;;5092558;28;20016;-78
2021/04/14 09:39:13;;;;;;;10.18;5.53;;;8.50;99.90;;;;;;5093634;28;20016;-76
2021/04/14 09:41:39;;;;;;;10.80;6.00;;;8.40;99.90;;;;;;5093833;28;20044;-74
2021/04/14 09:44:15;;;;;;;11.70;6.13;;;8.50;99.90;;;;;;5094700;28;20365;-75
2021/04/14 09:46:55;;;;;;;18.40;11.10;;;8.80;99.90;;;;;;5094041;28;20032;-74
2021/04/14 09:49:40;;;;;;;12.02;5.63;;;9.20;99.90;;;;;;5093209;28;20035;-75
2021/04/14 09:52:46;;;;;;;11.15;5.47;;;9.50;99.90;;;;;;5088679;28;20028;-75
2021/04/14 09:55:18;;;;;;;10.43;5.75;;;9.40;99.90;;;;;;5086177;28;20093;-75
2021/04/14 09:57:47;;;;;;;13.23;6.20;;;9.40;99.90;;;;;;5093436;28;20016;-78
2021/04/14 10:00:22;;;;;;;16.13;6.45;;;9.70;99.90;;;;;;5092710;28;20391;-77
2021/04/14 10:02:53;;;;;;;13.55;5.00;;;10.10;99.90;;;;;;5093968;28;20028;-79
2021/04/14 10:05:19;;;;;;;10.25;4.32;;;10.30;99.90;;;;;;5092653;28;20391;-78
2021/04/14 10:07:45;;;;;;;5.20;3.97;;;10.10;99.90;;;;;;5093150;28;20028;-76
2021/04/14 10:10:21;;;;;;;6.00;4.40;;;9.50;99.90;;;;;;5091573;28;20023;-76
2021/04/14 10:12:47;;;;;;;8.75;3.55;;;9.30;99.90;;;;;;5088648;28;20063;-75
2021/04/14 10:15:15;;;;;;;6.07;2.90;;;9.20;99.90;;;;;;5079961;28;20487;-76
2021/04/14 10:17:41;;;;;;;5.60;3.30;;;9.20;99.90;;;;;;5094200;28;20433;-78
2021/04/14 10:20:08;;;;;;;5.28;2.60;;;9.00;99.90;;;;;;5096814;28;20273;-78
2021/04/14 10:22:40;;;;;;;11.93;2.63;;;8.90;99.90;;;;;;5094629;28;20526;-78
2021/04/14 10:25:18;;;;;;;10.30;3.08;;;8.80;99.90;;;;;;5091579;28;20028;-76
2021/04/14 10:27:45;;;;;;;6.05;2.60;;;9.00;99.90;;;;;;5097248;28;20066;-75
2021/04/14 10:30:18;;;;;;;5.75;2.45;;;9.30;99.90;;;;;;5092143;28;20388;-77
2021/04/14 10:32:43;;;;;;;12.27;2.70;;;9.60;99.90;;;;;;5107659;28;20420;-77
2021/04/14 10:35:13;;;;;;;3.35;2.58;;;10.00;99.90;;;;;;5093809;28;20028;-76
2021/04/14 10:37:48;;;;;;;9.05;3.70;;;10.30;99.90;;;;;;5109620;28;20023;-77
2021/04/14 10:40:29;;;;;;;2.97;2.40;;;10.40;99.90;;;;;;5075202;28;20029;-76
2021/04/14 10:42:56;;;;;;;7.13;2.38;;;10.40;99.90;;;;;;5093212;28;20043;-73
2021/04/14 10:45:25;;;;;;;3.30;2.10;;;10.80;99.90;;;;;;5095689;28;20028;-77
2021/04/14 10:47:56;;;;;;;8.80;2.08;;;10.90;99.90;;;;;;5102050;28;20050;-77
2021/04/14 10:50:28;;;;;;;5.63;3.38;;;10.80;99.90;;;;;;5112227;28;20025;-79
2021/04/14 10:53:08;;;;;;;4.70;2.80;;;10.50;99.90;;;;;;5113066;28;20055;-79
2021/04/14 10:55:54;;;;;;;7.25;3.40;;;10.20;99.90;;;;;;5112774;28;20024;-72
2021/04/14 10:58:22;;;;;;;5.43;2.88;;;9.90;99.90;;;;;;5109815;28;20024;-75
2021/04/14 11:00:49;;;;;;;7.88;2.58;;;9.50;99.90;;;;;;5111320;28;20046;-73
2021/04/14 11:03:19;;;;;;;5.50;2.80;;;9.40;99.90;;;;;;5108598;28;20016;-71
2021/04/14 11:05:51;;;;;;;4.07;1.90;;;9.40;99.90;;;;;;5108431;28;20032;-71
2021/04/14 11:08:18;;;;;;;6.28;2.10;;;9.50;99.90;;;;;;5098672;28;20024;-72
2021/04/14 11:10:44;;;;;;;3.72;1.83;;;9.60;99.90;;;;;;5110933;28;20055;-71
2021/04/14 11:13:18;;;;;;;2.00;1.58;;;9.70;99.90;;;;;;5090207;28;20012;-72
2021/04/14 11:15:46;;;;;;;3.35;1.63;;;9.80;99.90;;;;;;5080257;28;20107;-72
2021/04/14 11:18:14;;;;;;;2.97;1.60;;;9.80;99.90;;;;;;5074241;28;20037;-78
2021/04/14 11:20:54;;;;;;;1.55;1.25;;;9.90;99.90;;;;;;5073989;28;20033;-76
2021/04/14 11:23:29;;;;;;;8.18;2.00;;;10.00;99.90;;;;;;5080311;28;20485;-79
2021/04/14 11:26:13;;;;;;;4.70;0.90;;;10.10;99.90;;;;;;5073055;28;20035;-75
2021/04/14 11:28:54;;;;;;;1.15;0.70;;;9.90;99.90;;;;;;5072172;28;20032;-79
2021/04/14 11:31:37;;;;;;;1.58;0.65;;;9.90;99.90;;;;;;5073453;28;20025;-75
2021/04/14 11:34:18;;;;;;;1.45;0.82;;;9.70;99.90;;;;;;5072589;28;20377;-74
2021/04/14 11:37:00;;;;;;;1.63;0.50;;;9.70;99.90;;;;;;5072250;28;20052;-76
2021/04/14 11:39:50;;;;;;;1.85;0.30;;;9.90;99.90;;;;;;5081735;28;20032;-75
2021/04/14 11:42:18;;;;;;;3.58;0.55;;;10.00;98.80;;;;;;5090074;28;20441;-74
2021/04/14 11:44:52;;;;;;;0.20;0.20;;;10.30;98.00;;;;;;5108481;28;20067;-77
2021/04/14 11:47:36;;;;;;;0.32;0.15;;;10.60;96.50;;;;;;5093450;28;20035;-76
2021/04/14 11:50:27;;;;;;;1.55;0.30;;;10.70;96.20;;;;;;5090999;28;20051;-78
2021/04/14 11:52:56;;;;;;;0.43;0.20;;;11.20;94.30;;;;;;5088321;28;20040;-78
2021/04/14 11:55:22;;;;;;;1.77;0.28;;;11.10;91.80;;;;;;5079529;28;20035;-76
2021/04/14 11:58:21;;;;;;;0.28;0.20;;;11.10;93.40;;;;;;5090729;28;20372;-76
2021/04/14 12:00:48;;;;;;;1.98;0.20;;;10.90;94.50;;;;;;5082789;28;20439;-74
2021/04/14 12:03:30;;;;;;;1.80;0.30;;;11.00;94.80;;;;;;5092185;28;20020;-74
2021/04/14 12:05:58;;;;;;;4.18;0.30;;;10.80;94.80;;;;;;5092315;28;20024;-72
2021/04/14 12:08:25;;;;;;;2.03;0.30;;;10.90;94.30;;;;;;5092982;28;20388;-72
2021/04/14 12:10:51;;;;;;;0.80;0.10;;;10.60;94.80;;;;;;5092292;28;20032;-72
2021/04/14 12:13:17;;;;;;;1.25;0.28;;;10.40;95.30;;;;;;5092950;28;20099;-72
2021/04/14 12:15:43;;;;;;;4.07;0.52;;;10.60;96.60;;;;;;5092189;28;20035;-71
2021/04/14 12:18:09;;;;;;;3.20;0.35;;;10.60;97.50;;;;;;5090679;28;20016;-71
2021/04/14 12:20:35;;;;;;;2.28;0.50;;;10.50;97.40;;;;;;5092875;28;20539;-71
2021/04/14 12:23:01;;;;;;;5.30;0.47;;;10.50;97.70;;;;;;5092891;28;20024;-72
2021/04/14 12:25:27;;;;;;;3.03;0.73;;;10.60;97.90;;;;;;5092844;28;20056;-72
2021/04/14 12:27:53;;;;;;;1.40;0.47;;;10.50;97.80;;;;;;5093021;28;20121;-74
2021/04/14 12:30:20;;;;;;;3.58;0.35;;;10.40;98.70;;;;;;5092962;28;20050;-72
2021/04/14 12:32:47;;;;;;;3.60;0.70;;;10.50;98.50;;;;;;5093139;28;20027;-72
2021/04/14 12:35:13;;;;;;;1.75;0.38;;;10.50;99.10;;;;;;5094904;28;20815;-73
2021/04/14 12:37:39;;;;;;;2.58;0.73;;;10.60;97.90;;;;;;5095817;28;20040;-71
2021/04/14 12:40:05;;;;;;;0.90;0.25;;;10.40;99.20;;;;;;5097208;28;20130;-72
2021/04/14 12:42:32;;;;;;;3.90;0.63;;;10.30;98.20;;;;;;5097773;28;20054;-70
2021/04/14 12:45:01;;;;;;;2.50;0.57;;;10.20;99.80;;;;;;5105889;28;20035;-71
2021/04/14 12:47:28;;;;;;;1.73;0.47;;;10.00;99.90;;;;;;5100560;28;20032;-72
2021/04/14 12:49:55;;;;;;;0.55;0.55;;;10.30;99.80;;;;;;5106093;28;20060;-71
2021/04/14 12:52:25;;;;;;;0.63;0.47;;;10.60;99.90;;;;;;5114556;28;20031;-69
2021/04/14 12:54:54;;;;;;;4.85;0.50;;;10.50;99.50;;;;;;5117588;28;20028;-76
2021/04/14 12:57:27;;;;;;;1.50;0.40;;;10.70;99.90;;;;;;5108811;28;20015;-69
2021/04/14 13:00:05;;;;;;;0.93;0.40;;;10.70;99.60;;;;;;5110595;28;20028;-71
2021/04/14 13:02:40;;;;;;;2.42;0.60;;;11.00;97.80;;;;;;5098053;28;20051;-72
2021/04/14 13:05:09;;;;;;;0.90;0.60;;;11.00;98.20;;;;;;5095953;28;20030;-71
2021/04/14 13:08:02;;;;;;;7.57;0.80;;;11.00;99.60;;;;;;5095953;28;20101;-71
2021/04/14 13:10:36;;;;;;;3.15;0.60;;;11.00;99.00;;;;;;5084577;28;20247;-73
2021/04/14 13:13:02;;;;;;;3.38;1.02;;;10.90;99.50;;;;;;5086326;28;20024;-72
2021/04/14 13:15:55;;;;;;;1.58;0.70;;;10.80;99.40;;;;;;5095659;28;20043;-72